sensor_id;sensor_type;location;lat;lon;timestamp;temperature;humidity
39849;DHT22;25518;47.878;15.914;2023-05-19T18:54:33;12.50;99.90
39849;DHT22;25518;47.878;15.914;2023-05-19T18:57:22;12.80;99.90
39849;DHT22;25518;47.878;15.914;2023-05-19T19:00:12;12.80;99.90
39849;DHT22;25518;47.878;15.914;2023-05-19T19:03:03;12.70;99.90
39849;DHT22;25518;47.878;15.914;2023-05-19T19:05:54;12.50;99.90
39849;DHT22;25518;47.878;15.914;2023-05-19T19:08:44;12.40;99.90
39849;DHT22;25518;47.878;15.914;2023-05-19T19:11:33;12.40;99.90
39849;DHT22;25518;47.878;15.914;2023-05-19T19:14:23;10.20;99.90
39849;DHT22;25518;47.878;15.914;2023-05-19T19:17:13;10.90;99.90
39849;DHT22;25518;47.878;15.914;2023-05-19T19:20:03;12.40;99.90
39849;DHT22;25518;47.878;15.914;2023-05-19T19:22:34;12.20;99.90
39849;DHT22;25518;47.878;15.914;2023-05-19T19:25:05;12.20;99.90
39849;DHT22;25518;47.878;15.914;2023-05-19T19:27:36;12.20;99.90
39849;DHT22;25518;47.878;15.914;2023-05-19T19:30:08;12.20;99.90
39849;DHT22;25518;47.878;15.914;2023-05-19T19:32:39;12.30;99.90
39849;DHT22;25518;47.878;15.914;2023-05-19T19:35:11;12.40;99.90
39849;DHT22;25518;47.878;15.914;2023-05-19T19:37:42;12.30;99.90
39849;DHT22;25518;47.878;15.914;2023-05-19T19:40:14;12.30;99.90
39849;DHT22;25518;47.878;15.914;2023-05-19T19:42:45;12.30;99.90
39849;DHT22;25518;47.878;15.914;2023-05-19T19:45:16;12.30;99.90
39849;DHT22;25518;47.878;15.914;2023-05-19T19:47:48;12.30;99.90
39849;DHT22;25518;47.878;15.914;2023-05-19T19:50:19;12.30;99.90
39849;DHT22;25518;47.878;15.914;2023-05-19T19:52:50;12.30;99.90
39849;DHT22;25518;47.878;15.914;2023-05-19T19:55:21;12.30;99.90
39849;DHT22;25518;47.878;15.914;2023-05-19T19:57:52;12.40;99.90
39849;DHT22;25518;47.878;15.914;2023-05-19T20:00:23;12.30;99.90
39849;DHT22;25518;47.878;15.914;2023-05-19T20:02:54;12.00;99.90
39849;DHT22;25518;47.878;15.914;2023-05-19T20:05:25;11.90;99.90
39849;DHT22;25518;47.878;15.914;2023-05-19T20:07:56;11.90;99.90
39849;DHT22;25518;47.878;15.914;2023-05-19T20:10:27;12.00;99.90
39849;DHT22;25518;47.878;15.914;2023-05-19T20:12:58;12.00;99.90
39849;DHT22;25518;47.878;15.914;2023-05-19T20:15:29;11.90;99.90
39849;DHT22;25518;47.878;15.914;2023-05-19T20:18:01;11.90;99.90
39849;DHT22;25518;47.878;15.914;2023-05-19T20:20:32;11.80;99.90
39849;DHT22;25518;47.878;15.914;2023-05-19T20:23:04;11.80;99.90
39849;DHT22;25518;47.878;15.914;2023-05-19T20:25:38;11.70;99.90
39849;DHT22;25518;47.878;15.914;2023-05-19T20:28:29;11.70;99.90
39849;DHT22;25518;47.878;15.914;2023-05-19T20:31:19;11.40;99.90
39849;DHT22;25518;47.878;15.914;2023-05-19T20:34:09;11.50;99.90
39849;DHT22;25518;47.878;15.914;2023-05-19T20:36:59;11.40;99.90
39849;DHT22;25518;47.878;15.914;2023-05-19T20:39:48;11.40;99.90
39849;DHT22;25518;47.878;15.914;2023-05-19T20:42:38;11.20;99.90
39849;DHT22;25518;47.878;15.914;2023-05-19T20:45:29;11.10;99.90
39849;DHT22;25518;47.878;15.914;2023-05-19T20:48:18;11.10;99.90
39849;DHT22;25518;47.878;15.914;2023-05-19T20:51:08;11.10;99.90
39849;DHT22;25518;47.878;15.914;2023-05-19T20:53:44;11.00;99.90
39849;DHT22;25518;47.878;15.914;2023-05-19T20:56:34;11.00;99.90
39849;DHT22;25518;47.878;15.914;2023-05-19T20:59:23;10.80;99.90
39849;DHT22;25518;47.878;15.914;2023-05-19T21:02:13;9.90;99.90
39849;DHT22;25518;47.878;15.914;2023-05-19T21:05:03;10.90;99.90
39849;DHT22;25518;47.878;15.914;2023-05-19T21:07:40;10.90;99.90
39849;DHT22;25518;47.878;15.914;2023-05-19T21:10:30;10.60;99.90
39849;DHT22;25518;47.878;15.914;2023-05-19T21:13:20;10.30;99.90
39849;DHT22;25518;47.878;15.914;2023-05-19T21:16:09;10.40;99.90
39849;DHT22;25518;47.878;15.914;2023-05-19T21:18:59;10.50;99.90
39849;DHT22;25518;47.878;15.914;2023-05-19T21:21:49;10.70;99.90
39849;DHT22;25518;47.878;15.914;2023-05-19T21:24:39;10.60;99.90
39849;DHT22;25518;47.878;15.914;2023-05-19T21:27:29;10.40;99.90
39849;DHT22;25518;47.878;15.914;2023-05-19T21:30:21;10.30;99.90
39849;DHT22;25518;47.878;15.914;2023-05-19T21:33:12;10.30;99.90
39849;DHT22;25518;47.878;15.914;2023-05-19T21:36:01;10.30;99.90
39849;DHT22;25518;47.878;15.914;2023-05-19T21:38:51;10.20;99.90
39849;DHT22;25518;47.878;15.914;2023-05-19T21:41:41;10.10;99.90
39849;DHT22;25518;47.878;15.914;2023-05-19T21:44:30;10.20;99.90
39849;DHT22;25518;47.878;15.914;2023-05-19T21:47:20;10.20;99.90
39849;DHT22;25518;47.878;15.914;2023-05-19T21:50:09;10.20;99.90
39849;DHT22;25518;47.878;15.914;2023-05-19T21:52:59;10.00;99.90
39849;DHT22;25518;47.878;15.914;2023-05-19T21:55:50;10.10;99.90
39849;DHT22;25518;47.878;15.914;2023-05-19T21:58:40;10.00;99.90
39849;DHT22;25518;47.878;15.914;2023-05-19T22:01:30;10.00;99.90
39849;DHT22;25518;47.878;15.914;2023-05-19T22:04:21;9.90;99.90
39849;DHT22;25518;47.878;15.914;2023-05-19T22:07:11;10.00;99.90
39849;DHT22;25518;47.878;15.914;2023-05-19T22:10:00;10.00;99.90
39849;DHT22;25518;47.878;15.914;2023-05-19T22:12:50;10.00;99.90
39849;DHT22;25518;47.878;15.914;2023-05-19T22:15:39;9.90;99.90
39849;DHT22;25518;47.878;15.914;2023-05-19T22:18:30;9.60;99.90
39849;DHT22;25518;47.878;15.914;2023-05-19T22:21:19;9.70;99.90
39849;DHT22;25518;47.878;15.914;2023-05-19T22:24:09;9.80;99.90
39849;DHT22;25518;47.878;15.914;2023-05-19T22:26:58;9.80;99.90
39849;DHT22;25518;47.878;15.914;2023-05-19T22:29:48;9.80;99.90
39849;DHT22;25518;47.878;15.914;2023-05-19T22:32:38;9.90;99.90
39849;DHT22;25518;47.878;15.914;2023-05-19T22:35:27;9.80;99.90
39849;DHT22;25518;47.878;15.914;2023-05-19T22:38:17;9.90;99.90
39849;DHT22;25518;47.878;15.914;2023-05-19T22:41:07;9.90;99.90
39849;DHT22;25518;47.878;15.914;2023-05-19T22:43:56;9.90;99.90
39849;DHT22;25518;47.878;15.914;2023-05-19T22:46:46;9.90;99.90
39849;DHT22;25518;47.878;15.914;2023-05-19T22:49:36;9.90;99.90
39849;DHT22;25518;47.878;15.914;2023-05-19T22:52:25;10.00;99.90
39849;DHT22;25518;47.878;15.914;2023-05-19T22:55:15;10.10;99.90
39849;DHT22;25518;47.878;15.914;2023-05-19T22:58:05;8.20;99.90
39849;DHT22;25518;47.878;15.914;2023-05-19T23:00:55;10.20;99.90
39849;DHT22;25518;47.878;15.914;2023-05-19T23:03:44;8.50;99.90
39849;DHT22;25518;47.878;15.914;2023-05-19T23:06:34;9.90;99.90
39849;DHT22;25518;47.878;15.914;2023-05-19T23:09:24;10.00;99.90
39849;DHT22;25518;47.878;15.914;2023-05-19T23:12:15;8.90;99.90
39849;DHT22;25518;47.878;15.914;2023-05-19T23:15:06;9.90;99.90
39849;DHT22;25518;47.878;15.914;2023-05-19T23:17:57;9.90;99.90
39849;DHT22;25518;47.878;15.914;2023-05-19T23:20:47;9.80;99.90
39849;DHT22;25518;47.878;15.914;2023-05-19T23:23:36;9.70;99.90
39849;DHT22;25518;47.878;15.914;2023-05-19T23:26:26;9.70;99.90
39849;DHT22;25518;47.878;15.914;2023-05-19T23:29:15;7.50;99.90
39849;DHT22;25518;47.878;15.914;2023-05-19T23:32:05;9.60;99.90
39849;DHT22;25518;47.878;15.914;2023-05-19T23:34:55;9.50;99.90
39849;DHT22;25518;47.878;15.914;2023-05-19T23:37:44;9.60;99.90
39849;DHT22;25518;47.878;15.914;2023-05-19T23:40:27;9.70;99.90
39849;DHT22;25518;47.878;15.914;2023-05-19T23:43:17;9.40;99.90
39849;DHT22;25518;47.878;15.914;2023-05-19T23:46:07;9.30;99.90
39849;DHT22;25518;47.878;15.914;2023-05-19T23:48:56;9.40;99.90
39849;DHT22;25518;47.878;15.914;2023-05-19T23:51:46;9.60;99.90
39849;DHT22;25518;47.878;15.914;2023-05-19T23:54:36;9.80;99.90
39849;DHT22;25518;47.878;15.914;2023-05-19T23:57:25;9.90;99.90
